Time;durP1;ratioP1;P1;durP2;ratioP2;P2;SDS_P1;SDS_P2;PMS_P1;PMS_P2;Temp;Humidity;BMP_temperature;BMP_pressure;BME280_temperature;BME280_humidity;BME280_pressure;Samples;Min_cycle;Max_cycle;Signal;HPM_P1;HPM_P2
2022/06/26 04:01:19;;;;;;;5.50;4.20;;;20.40;96.30;;;;;;5600054;22;20538;-76
2022/06/26 04:03:45;;;;;;;4.30;3.90;;;20.70;96.30;;;;;;4996018;28;20440;-77
2022/06/26 04:06:10;;;;;;;5.17;4.07;;;20.90;96.30;;;;;;4995869;28;20657;-77
2022/06/26 04:08:36;;;;;;;4.53;4.10;;;21.00;96.30;;;;;;4995270;28;20170;-77
2022/06/26 04:11:01;;;;;;;4.47;4.17;;;20.90;96.30;;;;;;4995970;28;20783;-77
2022/06/26 04:13:27;;;;;;;9.80;4.07;;;21.10;96.30;;;;;;4995809;28;20677;-77
2022/06/26 04:15:52;;;;;;;4.60;4.00;;;21.60;96.30;;;;;;4996675;28;20260;-78
2022/06/26 04:18:17;;;;;;;4.70;4.30;;;21.70;96.30;;;;;;4995904;28;20273;-78
2022/06/26 06:40:24;;;;;;;4.50;3.90;;;28.10;93.10;;;;;;5868121;22;20491;-79
2022/06/26 06:42:50;;;;;;;3.93;2.70;;;29.20;92.40;;;;;;4995231;28;20402;-78
2022/06/26 06:45:15;;;;;;;1.90;1.80;;;30.90;83.00;;;;;;4993189;28;20538;-78
2022/06/26 06:47:41;;;;;;;1.80;1.47;;;31.30;79.10;;;;;;4998908;28;20356;-77
2022/06/26 06:50:07;;;;;;;4.33;1.57;;;32.20;75.80;;;;;;5001947;28;20597;-76
2022/06/26 08:49:19;;;;;;;6.45;1.35;;;35.60;63.90;;;;;;5991804;23;20235;-81
2022/06/26 08:51:46;;;;;;;3.75;1.40;;;36.10;63.70;;;;;;4982012;28;20201;-81
2022/06/26 08:54:13;;;;;;;2.72;0.95;;;36.10;64.40;;;;;;5000598;28;20169;-80
2022/06/26 08:56:45;;;;;;;3.03;1.30;;;34.90;61.10;;;;;;5003241;28;20177;-81
2022/06/26 08:59:14;;;;;;;3.92;1.40;;;34.80;63.70;;;;;;5001611;28;20199;-80
2022/06/26 09:01:40;;;;;;;2.95;1.35;;;35.60;64.00;;;;;;4961196;28;20294;-79
2022/06/26 09:04:07;;;;;;;2.55;1.20;;;36.30;63.40;;;;;;4980592;28;20653;-81
2022/06/26 09:06:34;;;;;;;5.65;1.20;;;36.00;61.90;;;;;;4981524;28;20204;-81
2022/06/26 09:08:59;;;;;;;3.75;1.40;;;36.00;61.60;;;;;;4981361;28;20775;-81
2022/06/26 09:11:25;;;;;;;1.48;1.30;;;34.80;64.10;;;;;;4963386;28;20221;-79
2022/06/26 09:13:53;;;;;;;1.80;1.10;;;34.10;64.30;;;;;;4979816;28;20168;-81
2022/06/26 09:16:30;;;;;;;7.28;1.63;;;33.80;65.40;;;;;;4980476;28;20261;-82
2022/06/26 09:19:05;;;;;;;3.40;1.50;;;33.60;67.50;;;;;;4980131;28;20210;-81
2022/06/26 09:21:30;;;;;;;11.13;1.60;;;32.70;67.00;;;;;;4979827;28;20232;-80
2022/06/26 09:23:55;;;;;;;3.70;1.40;;;31.50;68.80;;;;;;4978794;28;20228;-80
2022/06/26 09:26:21;;;;;;;4.23;1.43;;;31.70;70.40;;;;;;4978941;28;20224;-79
2022/06/26 09:28:47;;;;;;;5.30;1.17;;;33.10;67.80;;;;;;4961905;28;20256;-80
2022/06/26 09:31:19;;;;;;;2.95;1.20;;;34.10;64.10;;;;;;4964630;28;20595;-81
2022/06/26 09:33:45;;;;;;;5.00;1.23;;;34.50;63.00;;;;;;4983199;28;20210;-81
2022/06/26 09:36:15;;;;;;;2.85;1.30;;;34.80;63.80;;;;;;4997233;28;20192;-81
2022/06/26 09:38:51;;;;;;;1.30;1.20;;;35.20;61.10;;;;;;4981004;28;20177;-81
2022/06/26 09:41:27;;;;;;;1.70;1.30;;;34.80;57.40;;;;;;4983993;28;20196;-81
2022/06/26 09:43:55;;;;;;;1.40;1.23;;;35.10;61.50;;;;;;5000337;28;20185;-81
2022/06/26 09:46:30;;;;;;;2.33;1.40;;;36.10;57.30;;;;;;4983843;28;20253;-81
2022/06/26 09:48:57;;;;;;;1.30;1.20;;;35.60;60.30;;;;;;5003031;28;20168;-81
2022/06/26 09:51:24;;;;;;;1.27;1.10;;;34.60;58.80;;;;;;5002975;28;20188;-81
2022/06/26 09:53:50;;;;;;;4.20;1.20;;;33.50;60.60;;;;;;5003541;28;20181;-81
2022/06/26 09:56:17;;;;;;;4.93;1.30;;;32.30;65.10;;;;;;5002616;28;20176;-81
2022/06/26 09:58:43;;;;;;;1.70;1.23;;;32.10;64.00;;;;;;4984186;28;20184;-81
2022/06/26 10:06:43;;;;;;;11.03;2.93;;;31.80;66.10;;;;;;5003656;28;20466;-81
2022/06/26 10:09:10;;;;;;;5.90;1.33;;;32.40;68.70;;;;;;4986365;28;20428;-81
2022/06/26 10:11:38;;;;;;;1.40;1.30;;;32.30;68.00;;;;;;5002484;28;20479;-81
2022/06/26 10:14:16;;;;;;;2.13;1.50;;;32.80;67.70;;;;;;5001815;28;20409;-81
2022/06/26 10:17:03;;;;;;;1.97;1.30;;;33.10;66.70;;;;;;4994756;28;20419;-78
2022/06/26 10:19:44;;;;;;;2.30;1.33;;;32.60;66.50;;;;;;4978648;28;20444;-79
2022/06/26 10:22:11;;;;;;;2.60;1.10;;;32.30;69.10;;;;;;4977685;28;20440;-83
2022/06/26 10:24:49;;;;;;;2.90;1.40;;;32.20;68.80;;;;;;4975902;28;20487;-79
2022/06/26 10:27:14;;;;;;;1.23;1.13;;;31.50;68.60;;;;;;4994599;28;20463;-79
2022/06/26 10:29:40;;;;;;;3.73;1.30;;;31.30;68.40;;;;;;4995301;28;20467;-79
2022/06/26 10:32:09;;;;;;;1.57;1.40;;;31.00;68.30;;;;;;4992673;28;20200;-78
2022/06/26 10:34:35;;;;;;;2.70;1.40;;;30.80;69.90;;;;;;4993369;28;20411;-78
2022/06/26 10:37:01;;;;;;;3.63;1.50;;;31.10;72.40;;;;;;4993580;28;20435;-79
2022/06/26 10:39:42;;;;;;;7.17;2.03;;;32.20;71.00;;;;;;4993392;28;20408;-78
2022/06/26 10:45:23;;;;;;;1.80;1.10;;;34.40;67.90;;;;;;4998126;28;20470;-80
2022/06/26 10:47:54;;;;;;;1.65;1.30;;;34.90;65.00;;;;;;4998040;28;20676;-78
2022/06/26 10:50:27;;;;;;;1.55;1.20;;;35.30;64.00;;;;;;4992993;28;20197;-79
2022/06/26 10:53:14;;;;;;;1.55;1.40;;;34.50;62.40;;;;;;4975753;28;20228;-79
2022/06/26 10:55:42;;;;;;;1.67;1.23;;;33.30;63.30;;;;;;4992241;28;20235;-78
2022/06/26 10:58:08;;;;;;;2.43;1.40;;;32.60;65.10;;;;;;4993184;28;20264;-79
2022/06/26 11:00:33;;;;;;;5.10;1.40;;;31.40;66.90;;;;;;4993782;28;20203;-79
2022/06/26 11:02:59;;;;;;;4.30;1.53;;;31.20;68.00;;;;;;4990970;28;20523;-79
2022/06/26 11:05:28;;;;;;;1.50;1.40;;;30.70;68.80;;;;;;4991437;28;20181;-78
2022/06/26 11:07:53;;;;;;;2.73;1.23;;;30.10;69.70;;;;;;4993822;28;20452;-79
2022/06/26 11:10:22;;;;;;;1.73;1.20;;;29.40;71.30;;;;;;4985771;28;20411;-80
2022/06/26 11:12:51;;;;;;;8.20;2.30;;;29.20;71.50;;;;;;4975576;28;20173;-81
2022/06/26 11:15:33;;;;;;;5.63;1.43;;;29.70;71.90;;;;;;4995285;28;20411;-80
2022/06/26 11:18:06;;;;;;;1.73;1.63;;;30.00;70.40;;;;;;4993074;28;20935;-79
2022/06/26 11:20:51;;;;;;;6.40;1.87;;;30.00;70.80;;;;;;4974586;28;20445;-82
2022/06/26 11:23:22;;;;;;;2.93;1.60;;;30.40;70.90;;;;;;4966302;28;20431;-82
2022/06/26 11:25:54;;;;;;;1.70;1.60;;;31.10;72.60;;;;;;4990356;28;20429;-80
2022/06/26 11:28:19;;;;;;;2.53;1.40;;;32.20;67.30;;;;;;4994511;28;20412;-83
2022/06/26 11:30:47;;;;;;;2.60;1.30;;;31.10;67.70;;;;;;4975257;28;20459;-83
2022/06/26 11:33:13;;;;;;;2.77;1.47;;;30.70;69.00;;;;;;4992748;28;20173;-83
2022/06/26 11:35:39;;;;;;;4.30;1.40;;;30.70;69.00;;;;;;4993194;28;20400;-83
2022/06/26 11:38:10;;;;;;;4.13;1.40;;;30.50;70.40;;;;;;4992666;28;20543;-82
2022/06/26 11:40:36;;;;;;;5.70;1.50;;;31.10;70.00;;;;;;4992990;28;20884;-82
2022/06/26 11:43:02;;;;;;;3.57;1.43;;;31.00;70.70;;;;;;4992643;28;20448;-82
2022/06/26 11:45:32;;;;;;;1.73;1.23;;;31.80;70.90;;;;;;4955747;28;20188;-83
2022/06/26 11:47:58;;;;;;;4.90;2.00;;;32.00;69.40;;;;;;4956157;28;20781;-83
2022/06/26 11:50:29;;;;;;;1.47;1.37;;;31.60;70.40;;;;;;4955792;28;20800;-82
2022/06/26 11:52:57;;;;;;;1.93;1.33;;;30.50;71.00;;;;;;4955943;28;20830;-82
2022/06/26 11:55:23;;;;;;;2.20;1.60;;;30.20;73.00;;;;;;4973176;28;20413;-82
2022/06/26 11:57:49;;;;;;;1.60;1.40;;;29.90;72.90;;;;;;4972883;28;20459;-82
2022/06/26 12:00:16;;;;;;;1.60;1.30;;;29.30;73.90;;;;;;4973283;28;20653;-82
2022/06/26 12:02:45;;;;;;;1.77;1.67;;;29.10;74.50;;;;;;4978247;28;20685;-82
2022/06/26 12:05:10;;;;;;;2.37;1.67;;;28.80;75.90;;;;;;4992025;28;20512;-82
2022/06/26 12:07:44;;;;;;;1.97;1.67;;;28.60;76.80;;;;;;4975062;28;20895;-81
2022/06/26 12:10:11;;;;;;;1.83;1.73;;;28.40;77.20;;;;;;4995093;28;20172;-81
2022/06/26 12:12:37;;;;;;;1.70;1.50;;;28.40;78.40;;;;;;4978041;28;20436;-81
2022/06/26 12:15:07;;;;;;;10.43;2.30;;;28.50;76.50;;;;;;4977909;28;20451;-79
2022/06/26 12:17:32;;;;;;;1.90;1.43;;;28.40;77.50;;;;;;4985836;28;20423;-79
2022/06/26 12:20:07;;;;;;;2.70;1.60;;;28.50;76.80;;;;;;4995962;28;20420;-79
2022/06/26 12:22:35;;;;;;;2.63;1.60;;;28.70;76.30;;;;;;4975152;28;20207;-79
2022/06/26 12:25:01;;;;;;;2.73;1.60;;;28.80;76.50;;;;;;4975465;28;20416;-79
2022/06/26 12:27:43;;;;;;;1.80;1.60;;;28.80;75.30;;;;;;4975808;28;20496;-82
2022/06/26 12:30:19;;;;;;;1.87;1.40;;;29.20;75.10;;;;;;4975721;28;20437;-83
2022/06/26 12:32:45;;;;;;;1.90;1.73;;;29.90;73.90;;;;;;4991335;28;20427;-83
2022/06/26 12:35:11;;;;;;;2.00;1.80;;;30.10;74.50;;;;;;4985979;28;20411;-84
2022/06/26 12:37:37;;;;;;;3.83;1.83;;;29.90;73.50;;;;;;4991213;28;20177;-83
2022/06/26 12:40:06;;;;;;;2.03;1.57;;;30.00;74.00;;;;;;5001725;28;20177;-83
2022/06/26 12:42:32;;;;;;;2.37;1.60;;;30.30;73.70;;;;;;4995550;28;20201;-83
2022/06/26 12:44:57;;;;;;;3.40;1.57;;;30.50;72.50;;;;;;4996334;28;20416;-85
2022/06/26 12:47:23;;;;;;;1.60;1.50;;;30.60;70.50;;;;;;4995499;28;20205;-81
2022/06/26 12:49:49;;;;;;;7.63;1.30;;;30.10;70.60;;;;;;4978057;28;20189;-83
2022/06/26 12:52:14;;;;;;;2.57;1.40;;;30.30;69.50;;;;;;4977689;28;20204;-83
2022/06/26 12:54:40;;;;;;;1.40;1.30;;;30.20;70.30;;;;;;4995202;28;20208;-82
2022/06/26 12:57:05;;;;;;;3.90;1.30;;;30.10;70.30;;;;;;4995166;28;20188;-83
2022/06/26 12:59:31;;;;;;;7.67;1.33;;;30.50;70.50;;;;;;4977417;28;20189;-83
2022/06/26 13:01:57;;;;;;;1.90;1.60;;;30.50;69.60;;;;;;4994792;28;20292;-83
2022/06/26 13:04:22;;;;;;;1.50;1.40;;;30.90;69.80;;;;;;4994638;28;20491;-83
2022/06/26 13:06:48;;;;;;;1.70;1.43;;;30.80;69.80;;;;;;4994736;28;20208;-83
2022/06/26 13:09:13;;;;;;;1.87;1.20;;;31.30;68.90;;;;;;4994856;28;20209;-83
2022/06/26 13:11:42;;;;;;;1.57;1.47;;;31.30;69.20;;;;;;4994147;28;20282;-83
2022/06/26 13:14:07;;;;;;;1.30;1.13;;;30.80;69.20;;;;;;4994956;28;20173;-83
2022/06/26 13:16:34;;;;;;;2.90;1.33;;;30.70;68.40;;;;;;4994872;28;20781;-81
2022/06/26 13:19:00;;;;;;;2.43;1.60;;;30.70;68.30;;;;;;4995250;28;20308;-79
2022/06/26 13:21:25;;;;;;;2.13;1.57;;;31.10;69.10;;;;;;4997086;28;20436;-79
2022/06/26 13:23:51;;;;;;;1.77;1.50;;;31.40;69.50;;;;;;5002867;28;20220;-80
2022/06/26 13:26:17;;;;;;;1.40;1.30;;;30.90;67.40;;;;;;5001947;28;20193;-80
2022/06/26 13:28:42;;;;;;;1.30;1.20;;;30.90;68.80;;;;;;5003148;28;20177;-80
2022/06/26 13:31:08;;;;;;;1.50;1.40;;;31.30;66.70;;;;;;5004580;28;20224;-81
2022/06/26 13:33:33;;;;;;;1.20;1.10;;;31.50;66.50;;;;;;4999562;28;20217;-83
2022/06/26 13:35:59;;;;;;;3.07;1.50;;;31.60;64.70;;;;;;5000126;28;20275;-81
2022/06/26 13:38:24;;;;;;;1.47;1.20;;;31.70;66.20;;;;;;4999824;28;20169;-81
2022/06/26 13:40:50;;;;;;;3.20;1.57;;;32.00;64.50;;;;;;5000062;28;20236;-82
2022/06/26 13:43:15;;;;;;;1.40;1.27;;;31.30;66.30;;;;;;4999971;28;20237;-82
2022/06/26 13:45:41;;;;;;;1.40;1.20;;;31.80;66.10;;;;;;4981534;28;20191;-82
2022/06/26 13:48:06;;;;;;;1.40;1.30;;;31.30;66.50;;;;;;4977023;28;20215;-83
2022/06/26 13:50:32;;;;;;;2.53;1.53;;;31.60;65.80;;;;;;4979713;28;20212;-81
2022/06/26 13:52:58;;;;;;;1.97;1.40;;;31.90;66.50;;;;;;4995646;28;20173;-83
2022/06/26 13:55:24;;;;;;;1.87;1.60;;;32.10;63.90;;;;;;4999284;28;20185;-81
2022/06/26 13:57:49;;;;;;;1.63;1.20;;;32.10;64.80;;;;;;4983021;28;20448;-82
2022/06/26 14:00:15;;;;;;;1.97;1.70;;;31.80;65.60;;;;;;5000360;28;20188;-79
2022/06/26 14:02:41;;;;;;;2.90;1.43;;;31.50;66.00;;;;;;4994498;28;20580;-83
2022/06/26 14:05:07;;;;;;;1.90;1.30;;;31.50;65.70;;;;;;4993871;28;20220;-82
2022/06/26 14:07:32;;;;;;;1.50;1.40;;;31.90;64.10;;;;;;4976130;28;20193;-83
2022/06/26 14:09:58;;;;;;;1.57;1.30;;;31.50;64.80;;;;;;4994242;28;20765;-79
2022/06/26 14:12:23;;;;;;;2.43;1.50;;;31.30;64.90;;;;;;4976819;28;20252;-79
2022/06/26 14:14:49;;;;;;;10.43;1.77;;;31.50;65.80;;;;;;4980639;28;20177;-79
2022/06/26 14:17:15;;;;;;;4.30;1.40;;;31.70;65.80;;;;;;4995449;28;20664;-80
2022/06/26 14:19:40;;;;;;;1.43;1.33;;;32.30;64.00;;;;;;4994897;28;20177;-81
2022/06/26 14:27:33;;;;;;;2.07;1.63;;;32.00;65.90;;;;;;4993846;28;20458;-78
2022/06/26 14:29:59;;;;;;;4.13;1.47;;;32.70;63.30;;;;;;4977797;28;20908;-80
2022/06/26 14:32:25;;;;;;;3.53;1.70;;;32.40;63.80;;;;;;4996874;28;20224;-79
2022/06/26 14:34:51;;;;;;;2.10;1.70;;;32.40;64.80;;;;;;4988918;28;20856;-80
2022/06/26 14:37:16;;;;;;;2.43;1.90;;;32.40;66.50;;;;;;4995024;28;20208;-81
2022/06/26 14:39:42;;;;;;;1.83;1.70;;;32.30;65.60;;;;;;4994785;28;20208;-82
2022/06/26 14:42:07;;;;;;;5.33;1.80;;;32.00;65.80;;;;;;4994589;28;20199;-83
2022/06/26 14:44:33;;;;;;;1.80;1.60;;;31.70;66.20;;;;;;4995988;28;20193;-81
2022/06/26 14:46:58;;;;;;;4.30;1.93;;;31.40;67.10;;;;;;4978596;28;20259;-79
2022/06/26 14:49:24;;;;;;;2.20;1.97;;;31.60;67.10;;;;;;4994385;28;20200;-80
2022/06/26 14:51:49;;;;;;;5.10;2.07;;;31.60;67.60;;;;;;4992869;28;20210;-83
2022/06/26 14:54:16;;;;;;;3.20;1.60;;;31.40;68.10;;;;;;4992573;28;20189;-82
2022/06/26 14:56:41;;;;;;;2.03;1.50;;;31.30;68.00;;;;;;4976912;28;20173;-80
2022/06/26 14:59:07;;;;;;;1.70;1.60;;;31.30;67.30;;;;;;4961863;28;20434;-82
2022/06/26 15:01:32;;;;;;;1.83;1.73;;;31.40;67.60;;;;;;4953613;28;20217;-83
2022/06/26 15:04:00;;;;;;;2.83;1.90;;;31.40;67.00;;;;;;4978908;28;20191;-82
2022/06/26 15:06:25;;;;;;;2.40;1.70;;;31.30;67.40;;;;;;4977013;28;20198;-81
2022/06/26 15:08:51;;;;;;;1.90;1.80;;;31.40;67.00;;;;;;4978858;28;20419;-82
2022/06/26 15:11:17;;;;;;;1.90;1.73;;;31.40;67.80;;;;;;4974664;28;20242;-82
2022/06/26 15:13:45;;;;;;;2.10;1.90;;;31.10;68.80;;;;;;4994549;28;20161;-80
2022/06/26 15:16:10;;;;;;;2.20;2.00;;;30.50;69.20;;;;;;4994263;28;20636;-80
2022/06/26 15:18:36;;;;;;;8.83;2.00;;;30.60;68.60;;;;;;4976453;28;20503;-80
2022/06/26 15:21:03;;;;;;;3.37;2.07;;;30.70;70.70;;;;;;4993531;28;20228;-81
2022/06/26 15:23:29;;;;;;;4.87;2.20;;;30.70;71.60;;;;;;4994308;28;20264;-79
2022/06/26 15:25:55;;;;;;;2.60;1.83;;;30.60;70.70;;;;;;4994356;28;20487;-80
2022/06/26 15:28:20;;;;;;;2.93;2.10;;;30.40;70.90;;;;;;4993511;28;20490;-80
2022/06/26 15:30:46;;;;;;;3.57;2.10;;;30.50;71.40;;;;;;4994450;28;20199;-79
2022/06/26 15:33:11;;;;;;;2.70;2.07;;;30.30;72.00;;;;;;4993757;28;20286;-79
2022/06/26 15:35:37;;;;;;;3.63;2.60;;;30.40;71.80;;;;;;4992300;28;20191;-79
2022/06/26 15:38:02;;;;;;;3.00;2.50;;;30.00;71.80;;;;;;4992053;28;20231;-79
2022/06/26 15:40:28;;;;;;;4.70;2.33;;;30.10;71.60;;;;;;4974884;28;20227;-80
2022/06/26 15:42:53;;;;;;;3.70;2.70;;;30.40;71.60;;;;;;4992421;28;20184;-79
2022/06/26 15:45:19;;;;;;;2.70;2.43;;;30.40;71.20;;;;;;4977873;28;20173;-80
2022/06/26 15:47:45;;;;;;;3.00;2.50;;;30.20;71.60;;;;;;4998133;28;20188;-80
2022/06/26 15:50:10;;;;;;;4.13;2.40;;;30.10;72.90;;;;;;4963918;28;995476;-83
2022/06/26 15:52:36;;;;;;;4.20;2.50;;;29.70;72.40;;;;;;4981312;28;20197;-83
2022/06/26 15:55:02;;;;;;;5.70;2.70;;;30.00;71.60;;;;;;4998447;28;20215;-80
2022/06/26 15:57:28;;;;;;;3.40;2.47;;;30.20;71.40;;;;;;4999084;28;20177;-80
2022/06/26 15:59:54;;;;;;;2.40;2.20;;;29.90;71.40;;;;;;4981756;28;20494;-79
2022/06/26 16:02:20;;;;;;;3.57;2.50;;;29.70;72.00;;;;;;4979274;28;20488;-79
2022/06/26 16:04:45;;;;;;;5.43;2.50;;;29.50;72.10;;;;;;4997920;28;20169;-80
2022/06/26 16:07:11;;;;;;;3.13;2.40;;;29.50;72.70;;;;;;4998894;28;20205;-80
2022/06/26 16:09:40;;;;;;;3.00;2.60;;;29.50;73.80;;;;;;4981908;28;20177;-82
2022/06/26 16:12:06;;;;;;;2.83;2.63;;;29.60;73.80;;;;;;4987355;28;20247;-81
2022/06/26 16:14:31;;;;;;;4.83;3.03;;;29.40;74.70;;;;;;5006019;28;20435;-81
2022/06/26 16:16:57;;;;;;;4.57;2.70;;;29.10;74.20;;;;;;4999377;28;20172;-82
2022/06/26 16:19:22;;;;;;;2.33;2.13;;;29.00;74.60;;;;;;4997694;28;20177;-80
2022/06/26 16:27:16;;;;;;;3.90;2.70;;;28.40;76.80;;;;;;4999344;28;21057;-79
2022/06/26 16:29:41;;;;;;;2.90;2.70;;;28.20;77.30;;;;;;4989523;28;20432;-81
2022/06/26 16:32:07;;;;;;;2.73;2.50;;;28.10;77.30;;;;;;4999096;28;20250;-81
2022/06/26 16:34:33;;;;;;;3.93;2.30;;;28.10;77.40;;;;;;4999591;28;20188;-81
2022/06/26 16:36:59;;;;;;;5.53;2.30;;;27.90;77.70;;;;;;4999261;28;20189;-81
2022/06/26 16:39:24;;;;;;;2.40;2.20;;;27.90;78.20;;;;;;4998319;28;20427;-80
2022/06/26 16:41:50;;;;;;;2.50;2.30;;;27.70;78.40;;;;;;4998786;28;20268;-80
2022/06/26 16:44:15;;;;;;;3.53;2.27;;;27.70;78.40;;;;;;4999069;28;20181;-80
2022/06/26 16:46:41;;;;;;;3.33;2.40;;;27.70;78.40;;;;;;4990374;28;20220;-81
2022/06/26 16:49:06;;;;;;;3.27;2.30;;;27.70;78.60;;;;;;4997711;28;21579;-81
2022/06/26 16:51:32;;;;;;;2.60;2.30;;;27.70;78.90;;;;;;4999539;28;20192;-81
2022/06/26 16:53:57;;;;;;;3.00;2.70;;;27.60;78.90;;;;;;4999389;28;20173;-81
2022/06/26 16:56:23;;;;;;;5.57;2.63;;;27.60;79.10;;;;;;4996833;28;20187;-81
2022/06/26 16:58:49;;;;;;;8.50;2.80;;;27.70;79.20;;;;;;4989315;28;20177;-81
2022/06/26 17:01:14;;;;;;;4.80;2.77;;;27.90;78.70;;;;;;4997165;28;20696;-80
2022/06/26 17:03:40;;;;;;;4.40;3.83;;;28.20;78.60;;;;;;4996672;28;20184;-81
2022/06/26 17:06:05;;;;;;;6.67;3.10;;;28.60;79.40;;;;;;4997268;28;20292;-80
2022/06/26 17:08:31;;;;;;;2.20;2.10;;;29.00;77.70;;;;;;4987717;28;20169;-79
2022/06/26 17:11:09;;;;;;;3.40;2.67;;;29.20;76.50;;;;;;5000640;28;20207;-81
2022/06/26 17:13:37;;;;;;;4.53;2.80;;;29.40;76.10;;;;;;4997618;28;20173;-81
2022/06/26 17:16:03;;;;;;;3.53;2.50;;;29.60;75.50;;;;;;4982647;28;20462;-78
2022/06/26 17:18:29;;;;;;;3.10;2.77;;;29.50;74.70;;;;;;4998053;28;20412;-79
2022/06/26 17:20:55;;;;;;;3.97;3.23;;;29.40;75.40;;;;;;4997732;28;20443;-79
2022/06/26 17:23:20;;;;;;;6.40;3.43;;;29.00;77.00;;;;;;4997718;28;20263;-78
2022/06/26 17:25:46;;;;;;;3.13;2.83;;;28.60;77.80;;;;;;4996980;28;20451;-79
2022/06/26 17:28:11;;;;;;;4.03;3.47;;;28.40;77.30;;;;;;4995811;28;20201;-78
2022/06/26 17:30:37;;;;;;;10.03;3.07;;;28.20;77.90;;;;;;4995611;28;20200;-79
2022/06/26 17:33:03;;;;;;;3.40;3.07;;;27.80;79.70;;;;;;4994574;28;20169;-77
2022/06/26 17:35:28;;;;;;;4.33;3.40;;;27.60;79.30;;;;;;4994451;28;20180;-77
2022/06/26 17:37:54;;;;;;;4.03;3.40;;;27.50;80.20;;;;;;4998196;28;20223;-79
2022/06/26 17:40:19;;;;;;;4.60;3.80;;;27.40;80.50;;;;;;4998408;28;20184;-77
2022/06/26 17:42:45;;;;;;;4.47;3.60;;;27.30;81.00;;;;;;4992517;28;20177;-80
2022/06/26 17:45:11;;;;;;;6.10;5.43;;;27.20;81.30;;;;;;5003436;28;20232;-80
2022/06/26 17:47:49;;;;;;;6.00;5.40;;;27.10;82.10;;;;;;5006642;28;20201;-80
2022/06/26 17:50:18;;;;;;;8.23;5.60;;;27.20;81.90;;;;;;5004265;28;20193;-80
2022/06/26 17:52:43;;;;;;;15.23;3.97;;;27.00;82.40;;;;;;4997027;28;20459;-80
2022/06/26 17:55:09;;;;;;;4.63;4.20;;;26.90;83.00;;;;;;4984639;28;20409;-77
2022/06/26 17:57:35;;;;;;;4.40;4.00;;;26.70;83.20;;;;;;4993645;28;20181;-79
2022/06/26 18:00:00;;;;;;;11.10;4.63;;;26.50;84.20;;;;;;4995085;28;20412;-79
2022/06/26 18:02:26;;;;;;;5.80;3.67;;;26.30;84.60;;;;;;4996273;28;20669;-79
2022/06/26 18:04:51;;;;;;;5.77;3.37;;;26.20;84.80;;;;;;4994812;28;20181;-79
2022/06/26 18:07:17;;;;;;;4.90;4.40;;;26.10;85.40;;;;;;4988171;28;20236;-79
2022/06/26 18:09:43;;;;;;;10.60;3.60;;;25.90;86.30;;;;;;4990302;28;20188;-79
2022/06/26 18:12:10;;;;;;;3.80;3.17;;;25.70;87.60;;;;;;4994208;28;20708;-79
2022/06/26 18:14:36;;;;;;;6.10;3.63;;;25.60;89.40;;;;;;4992084;28;20637;-79
2022/06/26 18:17:02;;;;;;;3.80;3.23;;;25.40;88.90;;;;;;4976950;28;20427;-80
2022/06/26 18:19:28;;;;;;;10.20;3.20;;;25.20;90.90;;;;;;4993056;28;20181;-79
2022/06/26 18:21:53;;;;;;;9.03;3.50;;;25.10;91.60;;;;;;4994206;28;20842;-78
2022/06/26 18:24:19;;;;;;;6.17;3.30;;;25.00;91.70;;;;;;4993811;28;20204;-79
2022/06/26 18:26:44;;;;;;;3.70;3.37;;;24.90;92.70;;;;;;4993218;28;20236;-79
2022/06/26 18:29:10;;;;;;;3.70;3.20;;;24.80;92.10;;;;;;4991002;28;20672;-79
2022/06/26 18:31:36;;;;;;;8.73;3.00;;;24.80;92.30;;;;;;4988304;28;20235;-79
2022/06/26 18:34:03;;;;;;;3.13;2.93;;;24.80;92.40;;;;;;4993018;28;20173;-80
2022/06/26 18:36:29;;;;;;;5.57;3.53;;;24.70;92.70;;;;;;4993258;28;20415;-79
2022/06/26 18:38:54;;;;;;;3.93;3.33;;;24.60;92.60;;;;;;4993239;28;20440;-79
2022/06/26 18:41:20;;;;;;;6.37;3.60;;;24.50;93.90;;;;;;4993864;28;20850;-79
2022/06/26 18:43:45;;;;;;;4.73;3.70;;;24.40;94.70;;;;;;4993539;28;20181;-78
2022/06/26 18:46:11;;;;;;;5.77;3.33;;;24.30;94.50;;;;;;4993380;28;20185;-78
2022/06/26 18:48:37;;;;;;;3.80;3.50;;;24.20;94.90;;;;;;4993093;28;20562;-79
2022/06/26 18:51:02;;;;;;;5.43;3.93;;;24.10;96.30;;;;;;4993266;28;20462;-79
2022/06/26 18:53:28;;;;;;;3.90;3.60;;;23.90;96.30;;;;;;4993368;28;20236;-79
2022/06/26 18:55:55;;;;;;;3.73;3.43;;;23.80;96.30;;;;;;4993265;28;20259;-78
2022/06/26 18:58:23;;;;;;;9.10;3.57;;;23.70;96.30;;;;;;4975536;28;20213;-77
2022/06/26 19:00:49;;;;;;;5.13;3.17;;;23.70;96.30;;;;;;4992958;28;20442;-77
2022/06/26 19:03:15;;;;;;;3.93;3.53;;;23.60;96.30;;;;;;4994884;28;20416;-80
2022/06/26 19:05:41;;;;;;;4.27;3.60;;;23.60;96.30;;;;;;5001224;28;20185;-79
2022/06/26 19:08:07;;;;;;;4.07;3.67;;;23.50;96.30;;;;;;5001028;28;20292;-80
2022/06/26 19:10:33;;;;;;;5.60;3.70;;;23.50;96.30;;;;;;5000768;28;20633;-79
2022/06/26 19:15:47;;;;;;;6.83;3.87;;;23.40;96.30;;;;;;4995126;28;20448;-79
2022/06/26 19:18:13;;;;;;;4.90;3.60;;;23.40;96.30;;;;;;4993906;28;20417;-79
2022/06/26 19:20:38;;;;;;;4.17;3.40;;;23.40;96.30;;;;;;4994385;28;20259;-79
2022/06/26 19:23:04;;;;;;;5.23;4.17;;;23.40;96.30;;;;;;4994168;28;20185;-79
2022/06/26 19:25:30;;;;;;;6.57;3.60;;;23.30;96.30;;;;;;4994322;28;20173;-78
2022/06/26 19:27:57;;;;;;;5.50;3.80;;;23.20;96.30;;;;;;4993419;28;20209;-79
2022/06/26 19:30:22;;;;;;;6.70;3.70;;;23.10;96.30;;;;;;4994334;28;20417;-79
2022/06/26 19:32:50;;;;;;;5.37;3.67;;;23.00;96.30;;;;;;4982532;28;20767;-79
2022/06/26 19:35:16;;;;;;;9.10;3.97;;;23.00;96.30;;;;;;4982835;28;20558;-78
2022/06/26 19:37:42;;;;;;;4.43;3.50;;;23.00;96.30;;;;;;4999787;28;20427;-78
2022/06/26 19:40:09;;;;;;;4.20;3.80;;;23.00;96.30;;;;;;5000013;28;20231;-78
2022/06/26 19:42:35;;;;;;;5.43;4.33;;;22.80;96.30;;;;;;4999084;28;20861;-78
2022/06/26 19:45:03;;;;;;;4.13;3.77;;;22.80;96.30;;;;;;4999772;28;20505;-79
2022/06/26 19:47:30;;;;;;;5.53;3.90;;;22.80;96.30;;;;;;4999462;28;20472;-79
2022/06/26 19:52:44;;;;;;;4.17;3.87;;;22.70;96.30;;;;;;4999549;28;20459;-78
2022/06/26 19:55:10;;;;;;;4.13;3.70;;;22.70;96.30;;;;;;4981909;28;20416;-78
2022/06/26 19:57:37;;;;;;;9.83;4.03;;;22.60;96.30;;;;;;4999170;28;20831;-78
2022/06/26 20:00:04;;;;;;;5.73;4.87;;;22.60;96.30;;;;;;4981850;28;20435;-78
2022/06/26 20:02:30;;;;;;;7.63;4.37;;;22.50;96.30;;;;;;4981681;28;20452;-78
2022/06/26 20:04:55;;;;;;;4.90;4.30;;;22.50;96.30;;;;;;4999205;28;20420;-78
2022/06/26 20:07:21;;;;;;;4.60;4.20;;;22.40;96.30;;;;;;4998771;28;20208;-78
2022/06/26 20:09:46;;;;;;;5.00;4.00;;;22.40;96.30;;;;;;5000565;28;20208;-78
2022/06/26 20:12:12;;;;;;;7.70;4.47;;;22.40;96.30;;;;;;5002435;28;20570;-79
2022/06/26 20:14:38;;;;;;;15.13;4.60;;;22.20;96.30;;;;;;5000426;28;20538;-79
2022/06/26 20:17:04;;;;;;;4.73;4.30;;;22.20;96.30;;;;;;4998823;28;20542;-79
2022/06/26 20:19:29;;;;;;;4.33;3.90;;;22.20;96.30;;;;;;4998503;28;20173;-79
2022/06/26 20:21:55;;;;;;;5.07;4.67;;;22.20;96.30;;;;;;4998484;28;20439;-78
2022/06/26 20:24:21;;;;;;;4.77;3.87;;;22.20;96.30;;;;;;4981185;28;20240;-78
2022/06/26 20:26:47;;;;;;;4.90;4.50;;;22.10;96.30;;;;;;4998594;28;20658;-78
2022/06/26 20:29:12;;;;;;;4.40;4.00;;;22.10;96.30;;;;;;4999544;28;20423;-79
2022/06/26 23:13:34;;;;;;;5.53;4.87;;;19.50;96.30;;;;;;5051477;23;20488;-79
2022/06/26 23:16:00;;;;;;;4.50;4.10;;;19.50;96.30;;;;;;4992895;28;20413;-77
2022/06/26 23:18:25;;;;;;;6.23;4.90;;;19.40;96.30;;;;;;4992635;28;20752;-77
2022/06/26 23:20:51;;;;;;;5.20;4.70;;;19.40;96.30;;;;;;4992794;28;20198;-77
2022/06/26 23:23:16;;;;;;;4.93;4.53;;;19.40;96.30;;;;;;4975424;28;20189;-77
2022/06/26 23:25:42;;;;;;;7.90;4.43;;;19.40;96.30;;;;;;4992729;28;20232;-78
2022/06/26 23:28:07;;;;;;;5.00;4.40;;;19.40;96.30;;;;;;4992438;28;20229;-78
2022/06/26 23:30:33;;;;;;;12.83;4.80;;;19.60;96.30;;;;;;4992698;28;20169;-78
2022/06/26 23:32:59;;;;;;;4.80;4.40;;;19.50;96.30;;;;;;4992706;28;20638;-78
2022/06/26 23:35:25;;;;;;;6.77;3.93;;;19.40;96.30;;;;;;4975204;28;20519;-78
2022/06/26 23:37:50;;;;;;;5.57;5.07;;;19.50;96.30;;;;;;4974955;28;20204;-78
2022/06/26 23:40:16;;;;;;;4.87;4.43;;;19.50;96.30;;;;;;4992693;28;20544;-78
2022/06/26 23:42:42;;;;;;;6.27;5.20;;;19.50;96.30;;;;;;4992538;28;20232;-78
2022/06/26 23:45:08;;;;;;;9.80;4.90;;;19.30;96.30;;;;;;4975113;28;20201;-78
2022/06/26 23:47:34;;;;;;;5.03;4.60;;;19.10;96.30;;;;;;4992088;28;20197;-78
2022/06/26 23:50:01;;;;;;;5.13;4.63;;;19.00;96.30;;;;;;4975300;28;20413;-78
2022/06/26 23:52:27;;;;;;;4.83;4.33;;;19.00;96.30;;;;;;4993148;28;20551;-78
2022/06/26 23:54:52;;;;;;;5.57;4.97;;;19.10;96.30;;;;;;4993271;28;20977;-78
2022/06/26 23:57:18;;;;;;;5.00;4.50;;;19.10;96.30;;;;;;4976199;28;20515;-78
2022/06/26 23:59:43;;;;;;;7.13;5.00;;;19.10;96.30;;;;;;4993409;28;20173;-78
